Time;durP1;ratioP1;P1;durP2;ratioP2;P2;SDS_P1;SDS_P2;PMS_P1;PMS_P2;Temp;Humidity;BMP_temperature;BMP_pressure;BME280_temperature;BME280_humidity;BME280_pressure;Samples;Min_cycle;Max_cycle;Signal;HPM_P1;HPM_P2
2023/12/08 00:01:28;;;;;;;;;10.00;8.00;;;;;19.75;47.20;100334.97;4938740;28;51531;-72
2023/12/08 00:03:54;;;;;;;;;9.25;7.75;;;;;19.72;47.18;100333.50;4953498;28;51771;-73
2023/12/08 00:06:19;;;;;;;;;8.00;8.00;;;;;19.71;47.07;100331.84;4938654;28;45347;-72
2023/12/08 00:08:44;;;;;;;;;10.25;10.00;;;;;19.62;47.17;100308.16;4938992;28;45290;-73
2023/12/08 00:11:11;;;;;;;;;10.75;9.25;;;;;19.71;47.02;100326.56;4938757;28;45334;-72
2023/12/08 00:13:36;;;;;;;;;9.50;8.00;;;;;19.70;46.98;100325.75;4938847;28;46046;-72
2023/12/08 00:16:03;;;;;;;;;9.33;8.67;;;;;19.68;46.97;100311.06;4938645;28;45193;-73
2023/12/08 00:18:28;;;;;;;;;8.00;6.33;;;;;19.68;46.95;100316.34;4938931;28;45258;-72
2023/12/08 00:20:53;;;;;;;;;7.50;7.50;;;;;19.69;47.13;100328.56;4938393;28;45221;-72
2023/12/08 00:23:19;;;;;;;;;6.67;6.67;;;;;19.68;47.00;100324.28;4938468;28;46058;-72
2023/12/08 00:25:44;;;;;;;;;8.00;7.75;;;;;19.67;46.67;100325.28;4938585;28;45348;-72
2023/12/08 00:28:10;;;;;;;;;8.75;8.00;;;;;19.62;47.15;100318.69;4938658;28;45379;-72
2023/12/08 00:30:35;;;;;;;;;10.00;8.00;;;;;19.65;47.04;100316.72;4938653;28;45454;-71
2023/12/08 00:33:02;;;;;;;;;7.00;7.00;;;;;19.67;46.80;100327.94;4938484;28;45378;-72
2023/12/08 00:35:28;;;;;;;;;8.00;7.00;;;;;19.67;46.63;100330.56;4938082;28;45679;-72
2023/12/08 00:37:53;;;;;;;;;9.67;8.00;;;;;19.65;46.59;100324.66;4938561;28;45382;-72
2023/12/08 00:40:18;;;;;;;;;7.75;7.25;;;;;19.65;46.58;100322.81;4938536;28;45351;-72
2023/12/08 00:42:44;;;;;;;;;8.00;7.33;;;;;19.64;46.74;100325.63;4938340;28;45935;-72
2023/12/08 00:45:10;;;;;;;;;4.00;4.00;;;;;19.64;46.64;100341.47;4953251;28;45816;-72
2023/12/08 00:47:35;;;;;;;;;6.00;6.00;;;;;19.64;46.72;100344.09;4938413;28;45719;-72
2023/12/08 00:50:00;;;;;;;;;8.00;8.00;;;;;19.61;46.89;100347.91;4936382;28;54152;-72
2023/12/08 00:52:26;;;;;;;;;6.00;5.50;;;;;19.62;46.37;100345.09;4937009;28;45969;-72
2023/12/08 00:54:51;;;;;;;;;7.75;6.50;;;;;19.62;46.70;100346.94;4937773;28;45472;-72
2023/12/08 00:57:17;;;;;;;;;6.25;6.25;;;;;19.62;46.49;100346.94;4938136;28;45317;-72
2023/12/08 00:59:42;;;;;;;;;6.25;5.00;;;;;19.60;46.54;100339.19;4938286;28;45300;-72
2023/12/08 01:02:07;;;;;;;;;7.25;7.25;;;;;19.60;46.41;100333.91;4937840;28;45449;-72
2023/12/08 01:04:33;;;;;;;;;8.75;6.75;;;;;19.51;46.50;100330.50;4937704;28;45299;-72
2023/12/08 01:06:58;;;;;;;;;7.00;6.00;;;;;19.60;46.28;100343.63;4938271;28;45355;-72
2023/12/08 01:09:24;;;;;;;;;7.33;6.33;;;;;19.59;46.31;100345.47;4938189;28;45557;-71
2023/12/08 01:11:49;;;;;;;;;5.67;5.33;;;;;19.51;46.40;100338.44;4937834;28;46564;-72
2023/12/08 01:14:14;;;;;;;;;7.00;5.00;;;;;19.60;46.43;100356.81;4937726;28;49489;-72
2023/12/08 01:16:43;;;;;;;;;7.67;6.00;;;;;19.59;46.30;100352.56;4938029;28;45349;-72
2023/12/08 01:19:10;;;;;;;;;9.00;6.67;;;;;19.60;46.29;100355.00;4937721;28;45295;-72
2023/12/08 01:21:36;;;;;;;;;6.00;6.00;;;;;19.60;46.21;100351.53;4937631;28;46188;-71
2023/12/08 01:24:02;;;;;;;;;6.33;6.33;;;;;19.59;46.17;100356.03;4937643;28;45263;-72
2023/12/08 01:26:27;;;;;;;;;5.25;5.25;;;;;19.59;46.14;100349.91;4952720;28;45459;-72
2023/12/08 01:28:52;;;;;;;;;8.75;7.25;;;;;19.58;46.31;100354.38;4937596;28;45288;-72
2023/12/08 01:31:17;;;;;;;;;4.00;2.33;;;;;19.48;46.04;100340.59;4937644;28;45979;-72
2023/12/08 01:33:43;;;;;;;;;6.33;6.33;;;;;19.57;46.03;100351.91;4937297;28;46499;-72
2023/12/08 01:36:08;;;;;;;;;5.00;5.00;;;;;19.57;46.30;100354.56;4937775;28;45200;-72
2023/12/08 01:38:33;;;;;;;;;7.67;7.67;;;;;19.54;45.99;100352.25;4937884;28;45245;-71
2023/12/08 01:40:59;;;;;;;;;4.00;4.00;;;;;19.51;46.22;100349.00;4937522;28;47873;-72
2023/12/08 01:43:24;;;;;;;;;6.00;5.33;;;;;19.56;46.05;100350.25;4937566;28;45395;-72
2023/12/08 01:45:49;;;;;;;;;13.33;8.00;;;;;19.49;45.88;100340.41;4937622;28;45349;-72
2023/12/08 01:48:15;;;;;;;;;5.00;5.00;;;;;19.56;45.92;100352.91;4937209;28;45405;-72
2023/12/08 01:50:40;;;;;;;;;8.33;6.67;;;;;19.48;45.88;100353.78;4937358;28;46110;-72
2023/12/08 01:53:06;;;;;;;;;7.00;6.00;;;;;19.53;45.96;100364.63;4937377;28;46068;-71
2023/12/08 01:55:32;;;;;;;;;5.67;5.67;;;;;19.57;45.93;100362.47;4937636;28;45523;-72
2023/12/08 01:57:59;;;;;;;;;6.00;6.00;;;;;19.52;45.90;100360.34;4937534;28;45494;-73
2023/12/08 02:00:25;;;;;;;;;7.00;7.00;;;;;19.54;45.94;100365.47;4937183;28;46475;-73
2023/12/08 02:02:51;;;;;;;;;6.00;6.00;;;;;19.55;45.92;100375.81;4936646;28;45267;-72
2023/12/08 02:05:19;;;;;;;;;6.75;5.50;;;;;19.56;45.94;100381.94;4937824;28;45260;-72
2023/12/08 02:07:44;;;;;;;;;6.33;6.00;;;;;19.53;45.92;100388.38;4940937;28;45358;-72
2023/12/08 02:10:10;;;;;;;;;5.00;5.00;;;;;19.52;45.92;100389.38;4940389;28;46934;-72
2023/12/08 02:12:36;;;;;;;;;4.00;3.33;;;;;19.47;45.93;100381.97;4940433;28;45373;-72
2023/12/08 02:15:01;;;;;;;;;6.50;4.75;;;;;19.55;45.72;100398.75;4940686;28;45405;-72
2023/12/08 02:17:32;;;;;;;;;7.00;6.50;;;;;19.47;46.14;100386.44;4940446;28;45307;-72
2023/12/08 02:19:58;;;;;;;;;5.75;5.75;;;;;19.54;45.85;100397.94;4940442;28;46158;-72
2023/12/08 02:22:23;;;;;;;;;5.50;5.50;;;;;19.49;45.69;100385.25;4940361;28;45311;-72
2023/12/08 02:24:49;;;;;;;;;5.67;4.67;;;;;19.47;45.70;100379.34;4940691;28;45548;-72
2023/12/08 02:27:15;;;;;;;;;7.75;5.25;;;;;19.54;45.63;100381.28;4939185;28;45444;-72
2023/12/08 02:29:40;;;;;;;;;5.25;4.25;;;;;19.55;45.78;100381.09;4940215;28;46437;-72
2023/12/08 02:32:14;;;;;;;;;8.67;6.67;;;;;19.50;45.76;100386.91;4939810;28;45391;-72
2023/12/08 02:34:41;;;;;;;;;5.50;4.00;;;;;19.55;45.62;100398.75;4940511;28;45397;-72
2023/12/08 02:37:08;;;;;;;;;4.33;4.33;;;;;19.54;45.65;100389.22;4940246;28;45327;-72
2023/12/08 02:39:35;;;;;;;;;5.00;5.00;;;;;19.53;45.52;100403.38;4940090;28;46467;-72
2023/12/08 02:42:01;;;;;;;;;5.75;5.75;;;;;19.49;45.60;100397.66;4940017;28;45274;-72
2023/12/08 02:44:27;;;;;;;;;5.00;4.00;;;;;19.52;45.52;100394.63;4940169;28;45295;-72
2023/12/08 02:46:52;;;;;;;;;5.00;5.00;;;;;19.49;45.59;100385.25;4939849;28;45252;-72
2023/12/08 02:49:17;;;;;;;;;4.33;4.33;;;;;19.53;45.66;100379.63;4940061;28;47045;-72
2023/12/08 02:51:43;;;;;;;;;4.00;4.00;;;;;19.53;45.66;100377.81;4939987;28;45227;-72
2023/12/08 02:54:08;;;;;;;;;7.00;3.50;;;;;19.53;45.85;100374.34;4940100;28;45267;-72
2023/12/08 02:56:33;;;;;;;;;7.00;5.33;;;;;19.53;45.74;100375.19;4940260;28;45327;-72
2023/12/08 02:58:58;;;;;;;;;4.75;4.75;;;;;19.49;45.77;100382.63;4939904;28;46832;-72
2023/12/08 03:01:24;;;;;;;;;4.75;4.75;;;;;19.53;45.58;100390.19;4939530;28;45316;-72
2023/12/08 03:03:49;;;;;;;;;5.00;5.00;;;;;19.53;45.60;100387.56;4939270;28;56827;-72
2023/12/08 03:06:14;;;;;;;;;5.25;5.25;;;;;19.52;45.54;100381.44;4939853;28;45435;-72
2023/12/08 03:08:40;;;;;;;;;5.25;5.25;;;;;19.53;45.38;100385.75;4953968;28;65589;-72
2023/12/08 03:11:05;;;;;;;;;4.00;4.00;;;;;19.51;45.53;100380.66;4939652;28;45391;-72
2023/12/08 03:13:30;;;;;;;;;5.00;5.00;;;;;19.51;45.61;100390.38;4940061;28;45339;-72
2023/12/08 03:15:55;;;;;;;;;4.67;4.67;;;;;19.49;45.50;100384.47;4939302;28;45519;-72
2023/12/08 03:18:21;;;;;;;;;5.33;4.33;;;;;19.46;45.36;100372.44;4939596;28;45990;-72
2023/12/08 03:20:46;;;;;;;;;4.00;2.67;;;;;19.52;45.37;100392.00;4939248;28;53203;-71
2023/12/08 03:23:11;;;;;;;;;4.00;4.00;;;;;19.52;45.26;100394.63;4939868;28;45488;-72
2023/12/08 03:25:37;;;;;;;;;4.50;4.00;;;;;19.51;45.34;100388.56;4939396;28;49708;-72
2023/12/08 03:28:02;;;;;;;;;5.00;5.00;;;;;19.52;45.45;100394.63;4938963;28;55967;-72
2023/12/08 03:30:27;;;;;;;;;5.00;4.33;;;;;19.49;45.33;100395.81;4939102;28;45456;-72
2023/12/08 03:32:53;;;;;;;;;6.25;4.50;;;;;19.46;45.45;100390.91;4939274;28;46967;-72
2023/12/08 03:35:20;;;;;;;;;5.50;4.50;;;;;19.53;45.37;100403.38;4939671;28;45493;-72
2023/12/08 03:37:45;;;;;;;;;4.67;4.67;;;;;19.53;45.34;100406.03;4939203;28;47197;-73
2023/12/08 03:40:11;;;;;;;;;4.00;3.33;;;;;19.52;45.33;100405.19;4939295;28;45273;-72
2023/12/08 03:42:36;;;;;;;;;6.25;5.00;;;;;19.49;45.48;100392.38;4939467;28;45470;-72
2023/12/08 03:45:03;;;;;;;;;4.00;4.00;;;;;19.53;45.33;100408.66;4939116;28;45366;-72
2023/12/08 03:47:28;;;;;;;;;4.00;4.00;;;;;19.53;44.96;100401.56;4939308;28;47137;-72
2023/12/08 03:49:54;;;;;;;;;3.67;3.67;;;;;19.54;45.10;100403.22;4938753;28;55113;-71
2023/12/08 03:52:19;;;;;;;;;7.33;4.67;;;;;19.51;45.40;100409.69;4938166;28;45549;-70
2023/12/08 03:54:44;;;;;;;;;4.00;4.00;;;;;19.51;45.17;100412.31;4939224;28;45276;-73
2023/12/08 03:57:10;;;;;;;;;6.00;5.33;;;;;19.49;45.38;100413.47;4939149;28;46287;-72
2023/12/08 03:59:35;;;;;;;;;4.00;4.00;;;;;19.51;45.34;100411.50;4938428;28;53497;-70
2023/12/08 04:02:00;;;;;;;;;4.33;4.33;;;;;19.45;44.96;100410.34;4938906;28;45334;-72
2023/12/08 04:04:25;;;;;;;;;5.00;4.00;;;;;19.53;45.25;100419.22;4938985;28;45326;-71
2023/12/08 04:06:51;;;;;;;;;3.67;3.67;;;;;19.52;45.14;100418.38;4938290;28;64531;-70
2023/12/08 04:09:16;;;;;;;;;4.00;4.00;;;;;19.53;45.32;100421.84;4938941;28;45373;-71
2023/12/08 04:11:41;;;;;;;;;4.00;3.00;;;;;19.50;45.28;100417.75;4938673;28;48595;-70
2023/12/08 04:14:07;;;;;;;;;5.00;4.33;;;;;19.47;45.01;100420.72;4938323;28;45361;-72
2023/12/08 04:16:32;;;;;;;;;3.00;3.00;;;;;19.51;45.33;100438.69;4938802;28;50267;-72
2023/12/08 04:18:57;;;;;;;;;4.00;4.00;;;;;19.53;45.26;100437.69;4938621;28;49139;-72
2023/12/08 04:21:22;;;;;;;;;4.00;4.00;;;;;19.50;45.06;100438.84;4938858;28;45369;-72
2023/12/08 04:23:48;;;;;;;;;4.67;3.67;;;;;19.42;45.20;100431.81;4938874;28;45299;-72
2023/12/08 04:26:13;;;;;;;;;4.00;3.33;;;;;19.46;45.24;100437.56;4938547;28;47076;-70
2023/12/08 04:28:39;;;;;;;;;3.33;3.33;;;;;19.50;45.11;100450.25;4937400;28;45334;-70
2023/12/08 04:31:04;;;;;;;;;5.00;4.00;;;;;19.51;45.11;100459.81;4938773;28;45343;-72
2023/12/08 04:33:30;;;;;;;;;5.00;4.00;;;;;19.51;45.03;100457.16;4938558;28;45444;-72
2023/12/08 04:35:55;;;;;;;;;4.00;4.00;;;;;19.49;45.20;100459.13;4938539;28;45327;-72
2023/12/08 04:38:20;;;;;;;;;9.25;6.00;;;;;19.51;45.25;100462.44;4938399;28;45842;-71
2023/12/08 04:40:46;;;;;;;;;4.33;3.67;;;;;19.50;45.18;100474.00;4938556;28;45289;-72
2023/12/08 04:43:11;;;;;;;;;4.00;3.00;;;;;19.50;45.13;100471.34;4936795;28;51486;-72
2023/12/08 04:45:36;;;;;;;;;3.67;3.67;;;;;19.47;45.30;100474.31;4938331;28;45236;-72
2023/12/08 04:48:02;;;;;;;;;4.33;4.33;;;;;19.50;45.03;100475.78;4938370;28;45357;-72
2023/12/08 04:50:28;;;;;;;;;3.00;3.00;;;;;19.50;44.98;100474.00;4938441;28;45252;-72
2023/12/08 04:52:53;;;;;;;;;5.00;5.00;;;;;19.44;45.18;100464.09;4938245;28;45291;-71
2023/12/08 04:55:18;;;;;;;;;5.00;3.00;;;;;19.48;45.13;100477.78;4938160;28;45976;-72
2023/12/08 04:57:44;;;;;;;;;5.00;3.33;;;;;19.50;45.10;100474.00;4937728;28;48639;-72
2023/12/08 05:00:09;;;;;;;;;3.33;3.33;;;;;19.51;45.11;100475.66;4938005;28;48946;-72
2023/12/08 05:02:35;;;;;;;;;8.00;4.67;;;;;19.53;45.03;100485.19;4938012;28;45419;-72
2023/12/08 05:05:00;;;;;;;;;2.33;2.33;;;;;19.51;45.11;100491.47;4937982;28;46041;-71
2023/12/08 05:07:26;;;;;;;;;4.00;3.00;;;;;19.50;44.93;100492.47;4938291;28;45420;-72
2023/12/08 05:09:51;;;;;;;;;3.33;3.33;;;;;19.51;45.17;100488.84;4938234;28;45472;-72
2023/12/08 05:12:17;;;;;;;;;3.00;3.00;;;;;19.44;44.81;100477.31;4937666;28;45529;-72
2023/12/08 05:14:42;;;;;;;;;5.00;4.33;;;;;19.50;45.11;100487.19;4937876;28;45386;-72
2023/12/08 05:17:07;;;;;;;;;3.33;3.33;;;;;19.49;44.94;100488.16;4938006;28;45481;-72
2023/12/08 05:19:33;;;;;;;;;4.33;4.00;;;;;19.48;45.13;100478.63;4938083;28;45455;-72
2023/12/08 05:21:58;;;;;;;;;5.00;3.67;;;;;19.51;45.16;100486.19;4936608;28;45371;-72
2023/12/08 05:24:23;;;;;;;;;5.33;4.00;;;;;19.46;45.07;100485.88;4937610;28;51287;-72
2023/12/08 05:26:49;;;;;;;;;4.00;4.00;;;;;19.51;45.04;100494.13;4937384;28;45384;-72
2023/12/08 05:29:14;;;;;;;;;4.00;3.67;;;;;19.48;45.01;100493.63;4937798;28;45402;-72
2023/12/08 05:31:40;;;;;;;;;4.33;3.00;;;;;19.52;44.96;100508.09;4936429;28;45532;-72
2023/12/08 05:34:05;;;;;;;;;3.33;3.33;;;;;19.51;45.03;100509.13;4937710;28;45371;-72
2023/12/08 05:36:30;;;;;;;;;3.00;3.00;;;;;19.51;45.25;100506.47;4937786;28;45374;-71
2023/12/08 05:38:56;;;;;;;;;7.25;4.75;;;;;19.51;45.06;100506.47;4937363;28;49276;-72
2023/12/08 05:41:21;;;;;;;;;5.00;4.67;;;;;19.51;45.04;100515.22;4936146;28;45390;-72
2023/12/08 05:43:46;;;;;;;;;3.67;3.67;;;;;19.51;45.04;100517.88;4937667;28;45374;-72
2023/12/08 05:46:12;;;;;;;;;7.00;5.00;;;;;19.52;45.14;100508.09;4937571;28;45369;-72
2023/12/08 05:48:38;;;;;;;;;6.00;4.33;;;;;19.49;44.88;100509.28;4937783;28;45748;-72
2023/12/08 05:51:03;;;;;;;;;3.33;3.33;;;;;19.51;44.79;100515.22;4937621;28;45358;-72
2023/12/08 05:53:28;;;;;;;;;4.00;3.67;;;;;19.48;44.84;100505.00;4937305;28;47050;-72
2023/12/08 05:55:54;;;;;;;;;3.00;3.00;;;;;19.49;45.14;100517.19;4937097;28;45216;-72
2023/12/08 05:58:19;;;;;;;;;4.00;4.00;;;;;19.51;44.75;100517.88;4936256;28;45407;-73
2023/12/08 06:00:45;;;;;;;;;3.00;3.00;;;;;19.48;44.90;100515.56;4937344;28;45422;-73
2023/12/08 06:03:10;;;;;;;;;5.67;3.33;;;;;19.51;44.98;100520.50;4937080;28;46317;-72
2023/12/08 06:05:36;;;;;;;;;5.00;4.00;;;;;19.49;44.78;100511.91;4937142;28;45378;-71
2023/12/08 06:08:01;;;;;;;;;6.00;4.00;;;;;19.48;44.93;100514.72;4937284;28;45406;-71
2023/12/08 06:10:26;;;;;;;;;4.00;3.33;;;;;19.51;44.78;100533.69;4935748;28;45483;-73
2023/12/08 06:12:52;;;;;;;;;2.00;2.00;;;;;19.51;44.90;100527.59;4936942;28;46218;-71
2023/12/08 06:15:18;;;;;;;;;4.00;4.00;;;;;19.50;44.79;100532.03;4937274;28;45347;-71
2023/12/08 06:17:43;;;;;;;;;4.00;3.00;;;;;19.51;44.98;100531.06;4937397;28;45541;-71
2023/12/08 06:20:09;;;;;;;;;3.67;3.67;;;;;19.51;44.90;100532.88;4937339;28;45530;-71
2023/12/08 06:22:38;;;;;;;;;3.67;3.67;;;;;19.50;44.95;100547.88;4937146;28;47197;-72
2023/12/08 06:25:03;;;;;;;;;3.00;3.00;;;;;19.50;44.74;100547.03;4936652;28;45336;-72
2023/12/08 06:27:29;;;;;;;;;3.00;3.00;;;;;19.51;44.82;100554.81;4937032;28;45308;-72
2023/12/08 06:29:54;;;;;;;;;6.00;3.00;;;;;19.51;44.95;100561.91;4937131;28;45328;-72
2023/12/08 06:32:19;;;;;;;;;3.67;3.33;;;;;19.51;44.80;100567.16;4936813;28;47076;-70
2023/12/08 06:34:48;;;;;;;;;3.00;3.00;;;;;19.45;45.02;100557.28;4937101;28;45478;-71
2023/12/08 06:37:13;;;;;;;;;3.00;2.33;;;;;19.51;44.93;100565.38;4937232;28;45370;-72
2023/12/08 06:39:39;;;;;;;;;5.00;3.33;;;;;19.46;44.66;100556.31;4936529;28;45459;-73
2023/12/08 06:42:06;;;;;;;;;6.33;5.00;;;;;19.44;44.99;100553.81;4935570;28;46144;-72
2023/12/08 06:44:31;;;;;;;;;4.00;4.00;;;;;19.37;44.90;100545.78;4936911;28;45360;-73
2023/12/08 06:46:56;;;;;;;;;6.33;4.33;;;;;19.53;44.91;100569.63;4936751;28;45225;-76
2023/12/08 06:49:22;;;;;;;;;3.00;3.00;;;;;19.53;44.78;100567.00;4936900;28;45414;-74
2023/12/08 06:51:47;;;;;;;;;2.00;2.00;;;;;19.53;44.89;100562.53;4937744;28;46019;-74
2023/12/08 06:54:12;;;;;;;;;4.00;2.67;;;;;19.40;44.95;100547.25;4939589;28;51437;-74
2023/12/08 06:56:41;;;;;;;;;3.00;3.00;;;;;19.54;45.06;100577.41;4939986;28;45371;-74
2023/12/08 06:59:07;;;;;;;;;6.00;4.00;;;;;19.55;45.01;100580.84;4940085;28;45369;-75
2023/12/08 07:01:33;;;;;;;;;6.67;4.00;;;;;19.56;45.04;100583.31;4915327;28;47169;-73
2023/12/08 07:03:58;;;;;;;;;3.00;2.67;;;;;19.56;45.18;100590.41;4932457;28;46482;-74
2023/12/08 07:06:23;;;;;;;;;1.00;1.00;;;;;19.42;45.27;100573.44;4934822;28;45686;-73
2023/12/08 07:08:49;;;;;;;;;5.00;3.00;;;;;19.55;45.59;100589.56;4936748;28;45319;-74
2023/12/08 07:11:14;;;;;;;;;4.33;4.00;;;;;19.53;45.59;100591.56;4951061;28;47231;-76
2023/12/08 07:13:39;;;;;;;;;2.00;2.00;;;;;19.53;45.66;100598.66;4958125;28;45381;-70
2023/12/08 07:16:07;;;;;;;;;3.00;3.00;;;;;19.53;45.57;100603.94;4958960;28;45300;-72
2023/12/08 07:18:33;;;;;;;;;2.33;2.00;;;;;19.50;45.64;100611.19;4959138;28;45342;-70
2023/12/08 07:20:59;;;;;;;;;5.67;3.00;;;;;19.49;45.32;100611.38;4958863;28;46641;-71
2023/12/08 07:23:24;;;;;;;;;5.00;3.00;;;;;19.47;45.79;100613.34;4958491;28;45370;-72
2023/12/08 07:25:49;;;;;;;;;3.33;3.00;;;;;19.36;45.75;100601.34;4959060;28;45705;-71
2023/12/08 07:28:15;;;;;;;;;3.33;2.67;;;;;19.45;45.61;100625.88;4952448;28;45406;-71
2023/12/08 07:30:40;;;;;;;;;3.00;3.00;;;;;19.39;45.75;100624.72;4939459;28;46175;-75
2023/12/08 07:33:05;;;;;;;;;6.00;2.00;;;;;19.41;45.59;100643.88;4939400;28;45358;-74
2023/12/08 07:35:31;;;;;;;;;3.00;3.00;;;;;19.42;46.00;100647.31;4939019;28;58697;-73
2023/12/08 07:37:56;;;;;;;;;3.33;2.00;;;;;19.36;46.12;100643.56;4939047;28;45410;-73
2023/12/08 07:40:21;;;;;;;;;4.00;3.00;;;;;19.36;46.23;100643.56;4938896;28;46464;-73
2023/12/08 07:42:47;;;;;;;;;3.00;3.00;;;;;19.36;46.19;100652.28;4939136;28;48749;-72
2023/12/08 07:45:12;;;;;;;;;6.00;3.33;;;;;19.36;45.95;100646.19;4939516;28;45365;-72
2023/12/08 07:47:38;;;;;;;;;3.00;3.00;;;;;19.34;46.59;100650.78;4939409;28;45474;-71
2023/12/08 07:50:05;;;;;;;;;2.33;2.33;;;;;19.35;46.47;100649.81;4939093;28;46372;-72
2023/12/08 07:52:31;;;;;;;;;2.00;2.00;;;;;19.27;46.15;100635.66;4938720;28;45288;-71
2023/12/08 07:54:57;;;;;;;;;2.33;2.33;;;;;19.34;46.32;100651.63;4939189;28;45422;-71
2023/12/08 07:57:22;;;;;;;;;6.67;2.67;;;;;19.34;46.35;100653.44;4939240;28;45366;-73
2023/12/08 07:59:47;;;;;;;;;2.00;2.00;;;;;19.33;46.62;100654.44;4938880;28;46085;-73
2023/12/08 08:02:13;;;;;;;;;2.67;2.67;;;;;19.35;46.51;100657.72;4938199;28;54780;-73
2023/12/08 08:04:38;;;;;;;;;3.67;3.33;;;;;19.33;46.50;100663.19;4938111;28;45303;-74
2023/12/08 08:07:03;;;;;;;;;6.50;3.00;;;;;19.35;46.66;100668.28;4938691;28;45314;-72
2023/12/08 08:09:29;;;;;;;;;4.00;4.00;;;;;19.22;46.72;100651.16;4938704;28;46020;-73
2023/12/08 08:11:54;;;;;;;;;4.00;3.00;;;;;19.34;46.54;100671.91;4938982;28;45323;-73
2023/12/08 08:14:20;;;;;;;;;3.00;3.00;;;;;19.32;46.62;100668.59;4938511;28;47909;-73
2023/12/08 08:16:47;;;;;;;;;4.00;2.67;;;;;19.32;46.63;100663.34;4939011;28;45298;-73
2023/12/08 08:19:13;;;;;;;;;5.33;3.00;;;;;19.34;46.59;100671.91;4938724;28;47175;-73
2023/12/08 08:21:38;;;;;;;;;6.33;3.33;;;;;19.30;46.47;100666.16;4938260;28;45438;-73
2023/12/08 08:24:04;;;;;;;;;5.67;4.33;;;;;19.36;46.64;100683.13;4937249;28;48785;-73
2023/12/08 08:26:29;;;;;;;;;3.00;1.33;;;;;19.23;46.61;100660.69;4938722;28;45398;-73
2023/12/08 08:28:54;;;;;;;;;4.00;2.00;;;;;19.24;46.51;100670.28;4953568;28;47467;-72
2023/12/08 08:31:21;;;;;;;;;3.67;2.33;;;;;19.35;46.51;100689.38;4938632;28;45415;-73
2023/12/08 08:33:47;;;;;;;;;4.00;4.00;;;;;19.28;46.56;100668.94;4938330;28;45283;-72
2023/12/08 08:36:12;;;;;;;;;3.33;2.00;;;;;19.32;46.71;100684.44;4938572;28;45308;-71
2023/12/08 08:38:38;;;;;;;;;5.00;3.33;;;;;19.35;46.71;100686.75;4938310;28;46057;-73
2023/12/08 08:41:03;;;;;;;;;4.00;3.33;;;;;19.37;46.48;100704.06;4938534;28;45347;-73
2023/12/08 08:43:29;;;;;;;;;3.33;3.00;;;;;19.36;46.41;100701.59;4953342;28;45804;-71
2023/12/08 08:45:55;;;;;;;;;4.00;3.00;;;;;19.32;46.37;100695.81;4938551;28;45304;-73
2023/12/08 08:48:20;;;;;;;;;4.00;4.00;;;;;19.26;46.30;100689.38;4938047;28;46205;-73
2023/12/08 08:50:46;;;;;;;;;3.33;3.00;;;;;19.36;46.65;100697.13;4938211;28;45422;-73
2023/12/08 08:53:11;;;;;;;;;2.67;2.67;;;;;19.36;46.38;100698.97;4938435;28;45383;-73
2023/12/08 08:55:36;;;;;;;;;3.00;1.00;;;;;19.33;46.34;100699.28;4938441;28;45315;-73
2023/12/08 08:58:02;;;;;;;;;4.00;2.00;;;;;19.36;46.76;100704.25;4938194;28;46291;-73
2023/12/08 09:00:27;;;;;;;;;3.00;2.00;;;;;19.14;46.46;100673.06;4938259;28;45417;-73
2023/12/08 09:02:52;;;;;;;;;3.33;2.00;;;;;19.36;46.34;100709.53;4937662;28;48058;-73
2023/12/08 09:05:19;;;;;;;;;3.00;3.00;;;;;19.37;46.38;100716.44;4936747;28;45430;-72
2023/12/08 09:07:44;;;;;;;;;3.33;3.00;;;;;19.36;46.50;100712.97;4938021;28;47169;-71
2023/12/08 09:10:10;;;;;;;;;6.00;3.00;;;;;19.38;46.21;100718.91;4937745;28;45401;-73
2023/12/08 09:12:36;;;;;;;;;3.67;2.00;;;;;19.33;46.42;100715.94;4938172;28;45477;-71
2023/12/08 09:15:02;;;;;;;;;2.00;2.00;;;;;19.34;46.21;100714.94;4936479;28;45558;-73
2023/12/08 09:17:27;;;;;;;;;2.00;2.00;;;;;19.39;46.35;100732.91;4937488;28;46400;-73
2023/12/08 09:19:52;;;;;;;;;4.00;2.33;;;;;19.37;46.35;100727.81;4937626;28;50300;-73
2023/12/08 09:22:17;;;;;;;;;2.33;2.00;;;;;19.35;46.21;100729.78;4936771;28;45423;-73
2023/12/08 09:24:43;;;;;;;;;2.00;2.00;;;;;19.41;46.34;100736.22;4937731;28;46449;-73
2023/12/08 09:27:09;;;;;;;;;4.33;3.33;;;;;19.39;46.29;100735.53;4937848;28;46480;-73
2023/12/08 09:29:34;;;;;;;;;5.67;4.00;;;;;19.43;46.28;100743.97;4937792;28;45342;-73
2023/12/08 09:32:00;;;;;;;;;4.33;3.67;;;;;19.42;46.49;100748.41;4937343;28;45347;-73
2023/12/08 09:34:25;;;;;;;;;3.33;3.00;;;;;19.43;46.37;100747.44;4937810;28;45503;-73
2023/12/08 09:36:51;;;;;;;;;3.00;2.00;;;;;19.44;45.99;100743.00;4937464;28;45837;-73
2023/12/08 09:39:17;;;;;;;;;6.00;4.00;;;;;19.35;46.44;100735.06;4937653;28;45358;-73
2023/12/08 09:41:43;;;;;;;;;3.67;3.67;;;;;19.44;46.24;100749.06;4937580;28;45430;-73
2023/12/08 09:44:13;;;;;;;;;2.00;2.00;;;;;19.45;46.08;100752.53;4937753;28;45413;-73
2023/12/08 09:46:46;;;;;;;;;2.00;2.00;;;;;19.42;46.08;100748.41;4937084;28;45307;-73
2023/12/08 09:49:20;;;;;;;;;3.67;3.00;;;;;19.43;46.18;100757.16;4937454;28;45393;-73
2023/12/08 09:51:46;;;;;;;;;4.00;3.00;;;;;19.45;45.94;100769.19;4937463;28;45311;-73
2023/12/08 09:54:12;;;;;;;;;5.67;4.00;;;;;19.45;45.98;100753.38;4937315;28;45288;-73
2023/12/08 09:56:37;;;;;;;;;2.67;2.67;;;;;19.46;46.46;100751.56;4937389;28;46085;-73
2023/12/08 09:59:04;;;;;;;;;3.00;3.00;;;;;19.46;46.19;100749.75;4937410;28;45231;-72
2023/12/08 10:01:30;;;;;;;;;5.00;3.00;;;;;19.37;46.19;100732.25;4937024;28;45351;-73
2023/12/08 10:03:55;;;;;;;;;5.67;2.33;;;;;19.45;46.19;100748.09;4937100;28;45417;-73
2023/12/08 10:06:23;;;;;;;;;4.67;3.00;;;;;19.44;46.16;100743.00;4937094;28;45508;-74
2023/12/08 10:08:48;;;;;;;;;3.00;3.00;;;;;19.43;45.89;100749.25;4937175;28;45964;-74
2023/12/08 10:11:15;;;;;;;;;3.67;3.00;;;;;19.42;46.18;100756.34;4937339;28;45418;-73
2023/12/08 10:13:42;;;;;;;;;4.00;3.00;;;;;19.15;46.14;100716.88;4937258;28;45366;-73
2023/12/08 10:16:07;;;;;;;;;6.67;1.67;;;;;19.47;46.12;100764.56;4936517;28;45414;-73
2023/12/08 10:18:34;;;;;;;;;3.33;3.33;;;;;19.47;46.05;100775.13;4937183;28;45251;-73
2023/12/08 10:21:17;;;;;;;;;5.00;2.00;;;;;19.48;46.11;100774.16;4937321;28;45338;-72
2023/12/08 10:23:46;;;;;;;;;3.00;3.00;;;;;19.48;46.05;100781.25;4935830;28;45507;-72
2023/12/08 10:26:16;;;;;;;;;5.00;4.00;;;;;19.47;46.20;100784.84;4937317;28;45381;-72
2023/12/08 10:28:42;;;;;;;;;2.00;2.00;;;;;19.49;46.00;100782.91;4940247;28;45268;-73
2023/12/08 10:31:08;;;;;;;;;4.33;3.00;;;;;19.48;46.04;100775.97;4940079;28;45231;-73
2023/12/08 10:33:34;;;;;;;;;3.00;3.00;;;;;19.48;45.86;100779.44;4940437;28;45311;-72
2023/12/08 10:35:59;;;;;;;;;4.67;3.00;;;;;19.37;45.96;100764.75;4940172;28;46977;-72
2023/12/08 10:38:25;;;;;;;;;3.00;3.00;;;;;19.49;45.80;100783.72;4940272;28;45467;-73
2023/12/08 10:40:52;;;;;;;;;2.00;2.00;;;;;19.45;45.78;100771.84;4940366;28;45418;-73
2023/12/08 10:43:22;;;;;;;;;4.33;3.33;;;;;19.47;46.09;100775.13;4940395;28;45445;-73
2023/12/08 10:45:52;;;;;;;;;4.00;4.00;;;;;19.45;45.83;100769.19;4939830;28;46484;-73
2023/12/08 10:48:21;;;;;;;;;3.00;2.00;;;;;19.50;46.00;100777.44;4940216;28;45534;-72
2023/12/08 10:50:52;;;;;;;;;5.33;2.00;;;;;19.22;45.88;100719.72;4940134;28;45282;-72
2023/12/08 10:53:18;;;;;;;;;3.00;2.33;;;;;19.47;45.63;100769.84;4940109;28;45368;-72
2023/12/08 10:55:55;;;;;;;;;2.00;2.00;;;;;19.52;45.67;100764.06;4939928;28;46175;-73
2023/12/08 10:58:22;;;;;;;;;4.33;3.00;;;;;19.53;45.85;100762.28;4940007;28;45291;-72
2023/12/08 11:00:51;;;;;;;;;4.00;4.00;;;;;19.53;45.85;100764.91;4939600;28;45375;-72
2023/12/08 11:03:19;;;;;;;;;3.67;3.67;;;;;19.54;45.73;100763.94;4939821;28;45461;-72
2023/12/08 11:05:47;;;;;;;;;1.33;1.00;;;;;19.52;45.77;100758.81;4939576;28;46273;-72
2023/12/08 11:08:16;;;;;;;;;3.00;3.00;;;;;19.53;45.66;100757.81;4939852;28;45354;-72
2023/12/08 11:10:45;;;;;;;;;3.67;3.67;;;;;19.42;45.76;100737.88;4939598;28;45359;-72
2023/12/08 11:13:23;;;;;;;;;4.67;2.00;;;;;19.53;45.74;100755.19;4939948;28;45288;-73
2023/12/08 11:16:01;;;;;;;;;4.00;4.00;;;;;19.52;45.90;100756.16;4939694;28;46251;-73
2023/12/08 11:18:30;;;;;;;;;3.00;2.00;;;;;19.49;45.68;100749.41;4939758;28;45398;-72